Time;durP1;ratioP1;P1;durP2;ratioP2;P2;SDS_P1;SDS_P2;PMS_P1;PMS_P2;Temp;Humidity;BMP_temperature;BMP_pressure;BME280_temperature;BME280_humidity;BME280_pressure;Samples;Min_cycle;Max_cycle;Signal;HPM_P1;HPM_P2
2023/05/19 00:00:36;;;;;;;16.90;11.25;;;6.60;99.90;;;;;;5006096;28;20042;-80
2023/05/19 00:03:03;;;;;;;19.83;13.43;;;6.60;99.90;;;;;;5010236;28;20049;-80
2023/05/19 00:05:29;;;;;;;20.85;14.73;;;6.50;99.90;;;;;;4992323;28;20144;-80
2023/05/19 00:08:00;;;;;;;16.50;12.52;;;6.40;99.90;;;;;;4998536;28;20125;-80
2023/05/19 00:10:30;;;;;;;15.60;11.82;;;6.40;99.90;;;;;;4997676;28;20033;-80
2023/05/19 00:12:57;;;;;;;18.95;12.63;;;6.30;99.90;;;;;;4998594;28;20088;-80
2023/05/19 00:15:28;;;;;;;17.65;13.13;;;6.20;99.90;;;;;;4996652;28;20057;-80
2023/05/19 00:17:54;;;;;;;19.02;13.77;;;6.20;99.90;;;;;;5013767;28;20101;-80
2023/05/19 00:20:23;;;;;;;17.55;12.43;;;6.10;99.90;;;;;;5008721;28;20472;-79
2023/05/19 00:22:50;;;;;;;19.90;14.00;;;6.10;99.90;;;;;;5005098;28;20065;-79
2023/05/19 00:25:18;;;;;;;17.27;13.90;;;6.10;99.90;;;;;;4997906;28;20052;-80
2023/05/19 00:27:47;;;;;;;18.85;14.50;;;6.00;99.90;;;;;;4997106;28;20145;-80
2023/05/19 00:30:16;;;;;;;21.60;15.10;;;6.00;99.90;;;;;;4997022;28;20160;-80
2023/05/19 00:32:42;;;;;;;20.83;14.55;;;6.00;99.90;;;;;;4997523;28;20500;-79
2023/05/19 00:35:08;;;;;;;20.95;15.57;;;5.90;99.90;;;;;;4997515;28;20067;-80
2023/05/19 00:37:36;;;;;;;23.20;13.57;;;5.90;99.90;;;;;;5012655;28;20078;-80
2023/05/19 00:40:04;;;;;;;25.33;16.75;;;5.90;99.90;;;;;;4997152;28;20042;-80
2023/05/19 00:42:35;;;;;;;21.52;14.43;;;5.80;99.90;;;;;;4996762;28;20068;-79
2023/05/19 00:45:10;;;;;;;25.25;16.33;;;5.80;99.90;;;;;;4996740;28;20469;-80
2023/05/19 00:47:39;;;;;;;25.67;18.63;;;5.70;99.90;;;;;;5011746;28;20103;-80
2023/05/19 00:50:05;;;;;;;26.42;18.60;;;5.70;99.90;;;;;;4996656;28;20046;-80
2023/05/19 00:52:31;;;;;;;30.85;19.25;;;5.90;99.90;;;;;;4995405;28;20030;-80
2023/05/19 00:55:02;;;;;;;24.70;16.85;;;5.90;99.90;;;;;;4998274;28;20037;-80
2023/05/19 00:57:34;;;;;;;26.77;17.10;;;6.00;99.90;;;;;;4991986;28;20116;-80
2023/05/19 01:00:00;;;;;;;31.50;19.02;;;6.00;99.90;;;;;;5000533;28;20038;-80
2023/05/19 01:02:28;;;;;;;27.27;17.15;;;6.00;99.90;;;;;;4997146;28;20386;-80
2023/05/19 01:04:56;;;;;;;31.63;20.38;;;6.10;99.90;;;;;;5008142;28;20404;-80
2023/05/19 01:07:24;;;;;;;32.10;19.38;;;6.10;99.90;;;;;;5000268;28;20033;-80
2023/05/19 01:09:55;;;;;;;30.52;21.67;;;6.20;99.90;;;;;;4999694;28;20052;-80
2023/05/19 01:12:30;;;;;;;27.55;16.38;;;6.20;99.90;;;;;;4989554;28;20137;-80
2023/05/19 01:15:00;;;;;;;32.10;21.55;;;6.20;99.90;;;;;;5016105;28;20046;-80
2023/05/19 01:17:48;;;;;;;29.25;19.33;;;6.20;99.90;;;;;;4998511;28;20037;-80
2023/05/19 01:20:49;;;;;;;28.58;19.38;;;6.30;99.90;;;;;;4980672;28;20101;-80
2023/05/19 01:23:48;;;;;;;27.63;20.58;;;6.30;99.90;;;;;;4991468;28;20129;-80
2023/05/19 01:26:51;;;;;;;31.73;21.02;;;6.30;99.90;;;;;;4994640;28;20050;-80
2023/05/19 01:29:41;;;;;;;30.23;20.88;;;6.30;99.90;;;;;;4980464;28;20080;-80
2023/05/19 01:32:14;;;;;;;29.73;20.60;;;6.40;99.90;;;;;;4987753;28;20034;-80
2023/05/19 01:34:46;;;;;;;29.90;20.00;;;6.40;99.90;;;;;;4990061;28;20092;-80
2023/05/19 01:37:21;;;;;;;29.05;19.98;;;6.40;99.90;;;;;;5010900;28;20099;-80
2023/05/19 01:39:51;;;;;;;29.27;19.85;;;6.50;99.90;;;;;;5007866;28;20039;-80
2023/05/19 01:42:18;;;;;;;30.65;20.40;;;6.40;99.90;;;;;;5013946;28;20042;-80
2023/05/19 01:44:50;;;;;;;37.03;23.15;;;6.50;99.90;;;;;;4998098;28;20039;-80
2023/05/19 01:47:24;;;;;;;30.20;20.60;;;6.40;99.90;;;;;;5021528;28;20032;-80
2023/05/19 01:49:50;;;;;;;29.75;19.63;;;6.40;99.90;;;;;;5014378;28;20117;-80
2023/05/19 01:52:19;;;;;;;26.58;19.08;;;6.40;99.90;;;;;;4990204;28;20147;-80
2023/05/19 01:54:47;;;;;;;30.50;20.00;;;6.30;99.90;;;;;;4999118;28;20046;-80
2023/05/19 01:57:41;;;;;;;33.78;21.52;;;6.30;99.90;;;;;;5007227;28;20057;-80
2023/05/19 02:00:44;;;;;;;30.00;20.73;;;6.40;99.90;;;;;;4997331;28;20496;-80
2023/05/19 02:03:49;;;;;;;28.58;20.65;;;6.40;99.90;;;;;;5019612;28;20103;-80
2023/05/19 02:06:26;;;;;;;29.80;19.83;;;6.50;99.90;;;;;;4995048;28;20049;-80
2023/05/19 02:09:36;;;;;;;30.38;20.23;;;6.40;99.90;;;;;;4999560;28;20038;-80
2023/05/19 02:12:12;;;;;;;29.10;19.55;;;6.50;99.90;;;;;;4981414;28;20050;-80
2023/05/19 02:14:44;;;;;;;32.83;20.55;;;6.40;99.90;;;;;;5001489;28;20057;-80
2023/05/19 02:17:14;;;;;;;33.50;20.98;;;6.40;99.90;;;;;;4995935;28;20044;-80
2023/05/19 02:19:41;;;;;;;29.38;20.65;;;6.40;99.90;;;;;;4994179;28;20034;-80
2023/05/19 02:22:12;;;;;;;28.52;21.25;;;6.40;99.90;;;;;;5014711;28;20050;-80
2023/05/19 02:24:38;;;;;;;30.38;21.20;;;6.40;99.90;;;;;;4991322;28;20050;-80
2023/05/19 02:27:04;;;;;;;35.28;23.45;;;6.40;99.90;;;;;;5002062;28;20052;-80
2023/05/19 02:29:30;;;;;;;32.28;21.33;;;6.40;99.90;;;;;;5001778;28;20044;-80
2023/05/19 02:32:00;;;;;;;32.58;22.35;;;6.30;99.90;;;;;;4984859;28;20038;-80
2023/05/19 02:34:30;;;;;;;30.27;21.05;;;6.50;99.90;;;;;;4981797;28;20042;-80
2023/05/19 02:36:56;;;;;;;32.65;20.90;;;6.30;99.90;;;;;;4981322;28;20042;-80
2023/05/19 02:39:34;;;;;;;31.38;21.67;;;6.30;99.90;;;;;;4985556;28;20412;-80
2023/05/19 02:42:00;;;;;;;37.80;21.40;;;6.30;99.90;;;;;;5007721;28;20493;-80
2023/05/19 02:44:28;;;;;;;33.20;20.88;;;6.30;99.90;;;;;;5000351;28;20408;-80
2023/05/19 02:46:57;;;;;;;30.67;21.20;;;6.30;99.90;;;;;;5016533;28;20045;-80
2023/05/19 02:49:22;;;;;;;34.00;20.60;;;6.30;99.90;;;;;;5000131;28;20041;-80
2023/05/19 02:51:56;;;;;;;33.13;21.42;;;6.30;99.90;;;;;;4991516;28;20050;-80
2023/05/19 02:54:22;;;;;;;29.75;21.38;;;6.30;99.90;;;;;;5015379;28;20069;-80
2023/05/19 02:56:52;;;;;;;31.00;20.92;;;6.20;99.90;;;;;;4992048;28;20050;-80
2023/05/19 02:59:21;;;;;;;30.88;21.17;;;6.20;99.90;;;;;;5002673;28;20176;-80
2023/05/19 03:01:48;;;;;;;39.38;22.17;;;6.20;99.90;;;;;;4998116;28;20562;-80
2023/05/19 03:04:20;;;;;;;33.60;22.48;;;6.20;99.90;;;;;;4998995;28;20049;-79
2023/05/19 03:06:46;;;;;;;30.63;21.90;;;6.20;99.90;;;;;;4998345;28;20038;-80
2023/05/19 03:09:17;;;;;;;38.17;22.02;;;6.20;99.90;;;;;;4996617;28;20049;-80
2023/05/19 03:11:43;;;;;;;37.30;21.73;;;6.10;99.90;;;;;;4998111;28;20046;-80
2023/05/19 03:14:08;;;;;;;32.75;21.95;;;6.10;99.90;;;;;;5014845;28;20049;-80
2023/05/19 03:16:34;;;;;;;33.85;21.92;;;6.10;99.90;;;;;;4998009;28;20041;-80
2023/05/19 03:19:01;;;;;;;32.47;21.65;;;6.10;99.90;;;;;;4993866;28;20038;-80
2023/05/19 03:21:26;;;;;;;38.03;21.92;;;6.20;99.90;;;;;;4995889;28;20057;-80
2023/05/19 03:23:54;;;;;;;32.15;20.83;;;6.10;99.90;;;;;;5005404;28;20038;-80
2023/05/19 03:26:21;;;;;;;34.00;20.52;;;6.10;99.90;;;;;;4998030;28;20038;-80
2023/05/19 03:28:50;;;;;;;28.23;19.27;;;6.00;99.90;;;;;;4998685;28;20049;-80
2023/05/19 03:31:16;;;;;;;35.25;22.08;;;6.00;99.90;;;;;;5015202;28;20097;-80
2023/05/19 03:33:50;;;;;;;24.70;18.58;;;5.90;99.90;;;;;;4998646;28;20057;-80
2023/05/19 03:36:16;;;;;;;34.72;21.00;;;5.80;99.90;;;;;;4996018;28;20044;-80
2023/05/19 03:38:42;;;;;;;22.85;17.77;;;5.80;99.90;;;;;;4997569;28;20476;-80
2023/05/19 03:41:10;;;;;;;21.98;16.98;;;5.70;99.90;;;;;;5012886;28;20176;-80
2023/05/19 03:43:36;;;;;;;24.45;18.65;;;5.70;99.90;;;;;;4998405;28;20045;-79
2023/05/19 03:46:04;;;;;;;35.28;23.02;;;5.60;99.90;;;;;;4997764;28;20508;-80
2023/05/19 03:48:30;;;;;;;24.48;18.17;;;5.60;99.90;;;;;;4994983;28;20042;-80
2023/05/19 03:50:59;;;;;;;35.30;22.05;;;5.50;99.90;;;;;;4978821;28;20507;-80
2023/05/19 03:53:25;;;;;;;27.00;19.27;;;5.40;99.90;;;;;;5010858;28;20038;-80
2023/05/19 03:56:01;;;;;;;33.80;19.23;;;5.40;99.90;;;;;;5013184;28;20507;-80
2023/05/19 03:58:29;;;;;;;31.10;21.45;;;5.40;99.90;;;;;;4998633;28;20096;-80
2023/05/19 04:01:02;;;;;;;36.50;23.10;;;5.40;99.90;;;;;;4998618;28;20448;-80
2023/05/19 04:03:37;;;;;;;33.00;22.88;;;5.50;99.90;;;;;;4998240;28;20073;-80
2023/05/19 04:06:06;;;;;;;43.13;25.52;;;5.60;99.90;;;;;;4997085;28;20042;-80
2023/05/19 04:08:32;;;;;;;36.25;24.13;;;5.70;99.90;;;;;;4998372;28;20443;-80
2023/05/19 04:10:58;;;;;;;29.55;21.73;;;5.80;99.90;;;;;;4998166;28;20074;-80
2023/05/19 04:13:23;;;;;;;34.40;20.55;;;5.90;99.90;;;;;;4998778;28;20045;-80
2023/05/19 04:15:58;;;;;;;33.20;20.58;;;5.80;99.90;;;;;;4998076;28;20034;-80
2023/05/19 04:18:24;;;;;;;35.97;22.77;;;5.90;99.90;;;;;;4985807;28;20034;-80
2023/05/19 04:21:00;;;;;;;35.95;23.30;;;6.00;99.90;;;;;;4978684;28;20056;-80
2023/05/19 04:23:26;;;;;;;33.92;22.95;;;6.10;99.90;;;;;;4988787;28;20034;-80
2023/05/19 04:25:55;;;;;;;36.63;23.48;;;6.10;99.90;;;;;;4995899;28;20045;-80
2023/05/19 04:28:24;;;;;;;38.55;22.90;;;6.20;99.90;;;;;;5012470;28;20050;-80
2023/05/19 04:30:50;;;;;;;34.63;23.13;;;6.20;99.90;;;;;;4998643;28;20064;-80
2023/05/19 04:33:19;;;;;;;29.95;21.17;;;6.30;99.90;;;;;;4999182;28;20046;-80
2023/05/19 04:35:46;;;;;;;28.08;19.55;;;6.40;99.90;;;;;;4997598;28;20389;-80
2023/05/19 04:38:17;;;;;;;27.30;17.40;;;6.70;99.90;;;;;;4996699;28;20045;-80
2023/05/19 04:40:50;;;;;;;28.50;19.90;;;7.20;99.90;;;;;;4999053;28;20060;-80
2023/05/19 04:43:18;;;;;;;20.27;14.55;;;7.70;99.90;;;;;;5015191;28;20049;-80
2023/05/19 04:45:52;;;;;;;19.80;14.48;;;8.40;99.90;;;;;;5028488;28;20053;-80
2023/05/19 04:48:21;;;;;;;21.13;13.90;;;9.00;99.90;;;;;;4995067;28;20504;-80
2023/05/19 04:50:59;;;;;;;17.02;12.65;;;9.50;99.90;;;;;;4996640;28;20520;-80
2023/05/19 04:53:28;;;;;;;18.70;11.98;;;9.90;99.90;;;;;;4999485;28;20064;-80
2023/05/19 04:55:57;;;;;;;15.75;11.82;;;10.10;99.90;;;;;;4997920;28;20560;-80
2023/05/19 04:58:26;;;;;;;16.98;12.30;;;10.10;99.90;;;;;;5032153;28;20037;-80
2023/05/19 05:00:58;;;;;;;17.23;12.80;;;9.90;99.90;;;;;;4999305;28;20050;-80
2023/05/19 05:03:26;;;;;;;14.07;11.82;;;10.10;99.90;;;;;;4997453;28;20148;-80
2023/05/19 05:05:52;;;;;;;16.92;11.25;;;10.40;99.90;;;;;;4987992;28;20046;-80
2023/05/19 05:08:23;;;;;;;16.63;10.55;;;10.80;99.90;;;;;;5000812;28;20045;-80
2023/05/19 05:10:51;;;;;;;15.43;10.68;;;11.30;99.90;;;;;;5003647;28;20074;-80
2023/05/19 05:13:20;;;;;;;15.70;11.27;;;11.40;99.90;;;;;;5004710;28;20082;-80
2023/05/19 05:15:46;;;;;;;14.70;10.38;;;11.40;99.90;;;;;;5001087;28;20493;-80
2023/05/19 05:18:13;;;;;;;13.25;10.00;;;11.60;99.90;;;;;;4998217;28;20049;-80
2023/05/19 05:20:50;;;;;;;13.88;10.68;;;11.90;99.90;;;;;;4995877;28;20508;-80
2023/05/19 05:23:16;;;;;;;13.07;9.55;;;12.10;99.90;;;;;;5007073;28;20080;-80
2023/05/19 05:25:47;;;;;;;15.15;9.95;;;12.40;99.90;;;;;;5003405;28;20041;-80
2023/05/19 05:28:17;;;;;;;16.50;10.07;;;12.60;99.90;;;;;;4999663;28;20038;-80
2023/05/19 05:30:49;;;;;;;13.35;9.85;;;12.60;99.90;;;;;;5000641;28;20038;-80
2023/05/19 05:33:23;;;;;;;12.40;10.18;;;12.30;99.90;;;;;;4995860;28;20096;-78
2023/05/19 05:35:58;;;;;;;12.82;10.18;;;12.20;99.90;;;;;;4993345;28;20042;-78
2023/05/19 05:38:27;;;;;;;12.98;9.73;;;12.10;99.90;;;;;;4986796;28;20040;-78
2023/05/19 05:40:56;;;;;;;15.30;9.88;;;12.20;99.90;;;;;;4994343;28;20037;-77
2023/05/19 05:43:22;;;;;;;14.10;10.40;;;12.30;99.90;;;;;;4985547;28;20141;-78
2023/05/19 05:45:50;;;;;;;13.80;9.90;;;12.20;99.90;;;;;;4996159;28;20107;-78
2023/05/19 05:48:25;;;;;;;14.43;10.32;;;11.90;99.90;;;;;;4997791;28;20037;-78
2023/05/19 05:50:58;;;;;;;15.70;10.68;;;11.40;99.90;;;;;;4998662;28;20041;-78
2023/05/19 05:53:33;;;;;;;15.93;10.82;;;10.90;99.90;;;;;;4996793;28;20065;-78
2023/05/19 05:56:16;;;;;;;15.68;11.70;;;10.60;99.90;;;;;;5009625;28;20052;-78
2023/05/19 05:58:49;;;;;;;14.35;10.60;;;10.50;99.90;;;;;;5010180;28;20069;-78
2023/05/19 06:01:17;;;;;;;16.10;11.15;;;10.50;99.90;;;;;;4997044;28;20049;-78
2023/05/19 06:03:48;;;;;;;16.52;11.07;;;10.50;99.90;;;;;;5014635;28;20134;-78
2023/05/19 06:06:19;;;;;;;13.88;11.07;;;10.40;99.90;;;;;;5013920;28;20048;-78
2023/05/19 06:08:50;;;;;;;17.17;10.77;;;10.50;99.90;;;;;;4996258;28;20566;-78
2023/05/19 06:11:19;;;;;;;14.02;10.48;;;10.50;99.90;;;;;;4997070;28;20092;-78
2023/05/19 06:13:57;;;;;;;14.75;11.00;;;10.60;99.90;;;;;;4983410;28;20054;-78
2023/05/19 06:16:30;;;;;;;13.88;10.10;;;10.60;99.90;;;;;;4995217;28;20045;-78
2023/05/19 06:18:58;;;;;;;;;;;10.70;99.90;;;;;;4998255;28;20042;-78
2023/05/19 06:21:24;;;;;;;13.77;9.57;;;10.80;99.90;;;;;;4996295;28;19921;-78
2023/05/19 06:23:58;;;;;;;13.10;10.40;;;10.90;99.90;;;;;;4990535;28;20049;-78
2023/05/19 06:26:24;;;;;;;12.32;9.77;;;11.00;99.90;;;;;;4981512;28;20042;-78
2023/05/19 06:28:52;;;;;;;15.65;9.32;;;11.00;99.90;;;;;;4995511;28;20033;-78
2023/05/19 06:31:36;;;;;;;14.02;8.90;;;11.10;99.90;;;;;;5012960;28;20041;-79
2023/05/19 06:37:18;;;;;;;11.85;8.40;;;11.30;99.90;;;;;;5006006;28;20141;-79
2023/05/19 06:40:09;;;;;;;11.95;8.90;;;11.40;99.90;;;;;;4981213;28;20038;-79
2023/05/19 06:42:45;;;;;;;12.55;8.23;;;11.50;99.90;;;;;;4998064;28;20069;-79
2023/05/19 06:46:03;;;;;;;11.93;6.97;;;11.60;99.90;;;;;;4990937;28;20584;-79
2023/05/19 06:52:27;;;;;;;11.63;7.32;;;11.80;99.90;;;;;;4997823;28;20041;-79
2023/05/19 06:55:45;;;;;;;12.13;7.35;;;11.80;99.90;;;;;;4936127;29;20583;-79
2023/05/19 06:59:22;;;;;;;11.07;7.05;;;11.90;99.90;;;;;;4925669;29;20044;-79
2023/05/19 07:03:21;;;;;;;;;;;;;;;;;;;;;
2023/05/19 07:06:07;;;;;;;11.32;6.45;;;12.20;99.90;;;;;;4945409;28;20059;-79
2023/05/19 07:08:51;;;;;;;10.07;5.20;;;12.40;99.90;;;;;;4913574;29;20104;-79
2023/05/19 07:11:55;;;;;;;12.18;6.05;;;12.50;99.90;;;;;;4921649;28;20038;-78
2023/05/19 07:15:56;;;;;;;10.82;5.53;;;12.50;99.90;;;;;;4960599;28;20050;-78
2023/05/19 07:19:00;;;;;;;11.30;5.03;;;12.60;99.90;;;;;;5000555;28;20037;-77
2023/05/19 07:21:47;;;;;;;9.27;4.72;;;12.80;99.90;;;;;;4998891;28;20045;-77
2023/05/19 07:24:41;;;;;;;11.50;5.28;;;12.90;99.90;;;;;;5019221;28;20046;-77
2023/05/19 07:27:51;;;;;;;11.38;5.45;;;13.10;99.90;;;;;;4959817;28;20053;-77
2023/05/19 07:31:06;;;;;;;;;;;;;;;;;;;;;
2023/05/19 07:34:09;;;;;;;;;;;;;;;;;;;;;
2023/05/19 07:36:58;;;;;;;;;;;;;;;;;;;;;
2023/05/19 07:42:51;;;;;;;8.30;3.53;;;13.90;99.90;;;;;;4966339;28;20425;-76
2023/05/19 07:45:47;;;;;;;10.45;4.18;;;14.40;99.90;;;;;;4992860;28;20540;-78
2023/05/19 07:48:21;;;;;;;10.80;4.05;;;14.60;98.30;;;;;;4997218;28;20464;-78
2023/05/19 07:51:10;;;;;;;;;;;;;;;;;;;;;
2023/05/19 07:54:34;;;;;;;7.60;3.60;;;14.80;99.90;;;;;;5008187;28;20077;-78
2023/05/19 07:57:36;;;;;;;7.25;3.25;;;15.40;89.60;;;;;;4995095;28;20041;-78
2023/05/19 08:00:46;;;;;;;10.52;3.42;;;15.80;79.90;;;;;;4988636;28;20046;-77
2023/05/19 08:03:25;;;;;;;5.80;3.20;;;16.30;73.80;;;;;;4973811;28;20416;-78
2023/05/19 08:06:32;;;;;;;6.93;3.28;;;16.40;71.60;;;;;;5008413;28;20053;-78
2023/05/19 08:09:09;;;;;;;8.00;3.83;;;16.50;72.60;;;;;;4985840;28;20054;-78
2023/05/19 08:12:04;;;;;;;7.50;3.55;;;17.10;70.70;;;;;;4977086;28;20532;-78
2023/05/19 08:14:57;;;;;;;7.15;3.10;;;17.50;69.00;;;;;;4986942;28;20431;-77
2023/05/19 08:17:58;;;;;;;;;;;;;;;;;;;;;
2023/05/19 08:23:12;;;;;;;6.32;2.95;;;18.30;64.80;;;;;;5036515;22;20052;-78
2023/05/19 08:26:16;;;;;;;8.30;3.20;;;18.40;66.20;;;;;;5015702;28;20049;-77
2023/05/19 08:29:09;;;;;;;6.33;2.90;;;19.00;62.70;;;;;;5015123;28;20041;-77
2023/05/19 08:32:02;;;;;;;7.78;2.80;;;19.30;60.90;;;;;;5027199;28;20104;-78
2023/05/19 08:34:36;;;;;;;7.13;2.75;;;19.50;60.60;;;;;;5030781;28;20037;-77
2023/05/19 08:37:29;;;;;;;8.93;2.97;;;19.40;58.80;;;;;;5014400;28;20149;-79
2023/05/19 08:40:51;;;;;;;8.15;3.17;;;19.00;61.00;;;;;;5006504;28;20427;-78
2023/05/19 08:43:20;;;;;;;6.70;2.97;;;18.80;59.90;;;;;;5001237;28;20049;-78
2023/05/19 08:45:54;;;;;;;5.82;2.78;;;18.90;59.40;;;;;;5011624;28;20458;-78
2023/05/19 08:48:35;;;;;;;7.85;2.80;;;18.80;58.80;;;;;;4993128;28;20132;-78
2023/05/19 08:51:36;;;;;;;6.35;2.80;;;18.30;60.30;;;;;;4995540;28;20161;-78
2023/05/19 08:54:29;;;;;;;7.90;3.05;;;18.10;59.80;;;;;;5006057;28;20042;-78
2023/05/19 08:57:21;;;;;;;;;;;18.20;61.30;;;;;;5027494;28;20045;-78
2023/05/19 08:59:53;;;;;;;7.55;3.00;;;18.50;60.90;;;;;;5029877;28;19917;-78
2023/05/19 09:02:25;;;;;;;8.38;3.08;;;18.70;59.90;;;;;;5013516;28;20038;-78
2023/05/19 09:04:58;;;;;;;6.25;2.90;;;18.80;58.70;;;;;;5007231;28;20037;-78
2023/05/19 09:07:33;;;;;;;7.13;2.85;;;19.10;58.40;;;;;;5001402;28;20484;-81
2023/05/19 09:10:13;;;;;;;7.28;2.55;;;19.40;58.00;;;;;;4997288;28;20030;-79
2023/05/19 09:12:52;;;;;;;6.32;2.88;;;19.80;59.10;;;;;;5002276;28;20049;-80
2023/05/19 09:15:28;;;;;;;7.18;2.80;;;20.50;56.50;;;;;;5006778;28;20068;-79
2023/05/19 09:18:44;;;;;;;;;;;;;;;;;;;;;
2023/05/19 09:25:16;;;;;;;7.13;3.00;;;20.70;54.00;;;;;;5015944;28;20042;-79
2023/05/19 09:27:47;;;;;;;6.65;2.97;;;20.70;54.00;;;;;;5001172;28;20057;-80
2023/05/19 09:30:59;;;;;;;7.10;2.85;;;21.00;53.70;;;;;;5006288;28;20068;-79
2023/05/19 09:33:52;;;;;;;6.53;2.47;;;21.10;55.10;;;;;;5012203;28;20175;-79
2023/05/19 09:36:25;;;;;;;7.07;3.08;;;21.70;52.70;;;;;;5019694;28;20522;-78
2023/05/19 09:39:13;;;;;;;7.00;3.07;;;21.70;53.90;;;;;;5020956;28;20056;-80
2023/05/19 09:42:15;;;;;;;5.97;2.97;;;21.60;51.10;;;;;;4973202;28;20285;-82
2023/05/19 09:45:44;;;;;;;8.38;3.33;;;21.30;53.60;;;;;;4976432;28;20031;-79
2023/05/19 09:52:15;;;;;;;5.32;2.38;;;21.40;51.10;;;;;;5025613;28;20077;-78
2023/05/19 09:54:47;;;;;;;6.15;3.00;;;20.80;51.70;;;;;;5003427;28;20415;-77
2023/05/19 09:58:05;;;;;;;10.07;3.08;;;20.60;51.50;;;;;;5016090;28;20066;-78
2023/05/19 10:01:48;;;;;;;6.40;2.50;;;20.60;53.60;;;;;;5031613;28;20048;-80
2023/05/19 10:04:30;;;;;;;5.53;2.53;;;20.90;55.80;;;;;;5032039;28;20041;-79
2023/05/19 10:10:20;;;;;;;6.82;3.17;;;21.70;51.40;;;;;;5034075;28;20135;-81
2023/05/19 10:12:51;;;;;;;6.60;2.83;;;21.90;53.10;;;;;;5021969;28;20091;-79
2023/05/19 10:16:00;;;;;;;7.15;2.70;;;22.10;49.60;;;;;;5011980;28;20034;-81
2023/05/19 10:21:37;;;;;;;6.22;2.83;;;22.60;51.00;;;;;;5043076;28;20404;-80
2023/05/19 10:24:20;;;;;;;6.82;2.90;;;23.10;47.00;;;;;;5019284;28;20508;-82
2023/05/19 10:27:07;;;;;;;7.60;3.03;;;22.70;48.30;;;;;;5010481;28;20129;-82
2023/05/19 10:29:45;;;;;;;5.65;2.80;;;22.40;50.20;;;;;;5007385;28;20079;-81
2023/05/19 10:32:25;;;;;;;4.95;2.78;;;22.50;51.60;;;;;;5034476;28;20041;-81
2023/05/19 10:35:37;;;;;;;6.57;2.70;;;22.70;50.20;;;;;;5010126;28;20037;-80
2023/05/19 10:38:32;;;;;;;6.68;2.80;;;23.00;50.20;;;;;;5008155;28;20045;-79
2023/05/19 10:41:15;;;;;;;6.75;2.90;;;22.90;49.90;;;;;;5017888;28;20411;-82
2023/05/19 10:44:29;;;;;;;6.38;2.83;;;22.70;50.60;;;;;;5032751;28;20103;-82
2023/05/19 10:46:55;;;;;;;7.78;2.53;;;22.80;47.60;;;;;;4996914;28;20057;-80
2023/05/19 10:49:24;;;;;;;8.05;3.17;;;22.30;49.20;;;;;;5017133;28;20041;-81
2023/05/19 10:51:57;;;;;;;8.02;3.65;;;22.20;48.30;;;;;;5017274;28;20494;-81
2023/05/19 10:55:01;;;;;;;6.72;2.80;;;21.80;49.10;;;;;;5004862;28;20074;-81
2023/05/19 10:57:59;;;;;;;6.53;2.83;;;21.70;50.60;;;;;;5026764;28;20041;-81
2023/05/19 11:01:03;;;;;;;8.65;2.70;;;22.10;52.00;;;;;;5008330;28;20497;-82
2023/05/19 11:03:52;;;;;;;6.57;2.80;;;22.70;50.60;;;;;;4996940;28;20053;-78
2023/05/19 11:06:24;;;;;;;6.40;2.65;;;23.40;47.40;;;;;;5011021;28;20045;-80
2023/05/19 11:09:48;;;;;;;6.10;2.50;;;23.30;46.70;;;;;;5013203;28;20041;-82
2023/05/19 11:12:44;;;;;;;7.38;2.70;;;23.10;46.50;;;;;;4934765;29;20091;-82
2023/05/19 11:15:41;;;;;;;6.38;2.40;;;23.00;45.80;;;;;;4902951;29;20119;-81
2023/05/19 11:18:41;;;;;;;6.45;2.60;;;22.90;47.30;;;;;;4969806;28;20517;-80
2023/05/19 11:26:00;;;;;;;5.53;2.30;;;23.40;46.60;;;;;;4996277;28;20060;-81
2023/05/19 11:28:54;;;;;;;8.10;2.70;;;23.50;48.00;;;;;;4993963;28;20050;-80
2023/05/19 11:32:12;;;;;;;6.28;2.40;;;23.70;45.50;;;;;;4991830;28;20038;-81
2023/05/19 11:34:59;;;;;;;;;;;;;;;;;;;;;
2023/05/19 11:41:02;;;;;;;6.60;2.58;;;22.70;47.60;;;;;;4994091;28;20038;-82
2023/05/19 11:43:45;;;;;;;6.72;2.70;;;22.40;47.60;;;;;;4987788;28;20648;-82
2023/05/19 11:47:17;;;;;;;;;;;;;;;;;;;;;
2023/05/19 11:50:40;;;;;;;4.90;2.63;;;22.10;50.10;;;;;;5027180;28;20128;-83
2023/05/19 11:53:44;;;;;;;7.30;2.55;;;22.60;47.70;;;;;;5016648;28;20080;-83
2023/05/19 11:57:00;;;;;;;9.23;3.35;;;22.70;52.60;;;;;;4938421;29;20163;-84
2023/05/19 11:59:46;;;;;;;6.00;2.90;;;23.40;47.60;;;;;;4952846;28;20045;-81
2023/05/19 12:02:55;;;;;;;7.28;2.67;;;23.40;46.60;;;;;;5004079;28;20041;-82
2023/05/19 12:05:56;;;;;;;6.28;2.63;;;23.30;46.60;;;;;;5016837;28;20224;-82
2023/05/19 12:09:07;;;;;;;8.40;2.60;;;23.10;45.80;;;;;;5033120;28;20407;-81
2023/05/19 12:12:40;;;;;;;7.97;2.72;;;22.60;47.50;;;;;;5012035;28;20054;-82
2023/05/19 12:15:27;;;;;;;5.70;2.83;;;22.80;49.40;;;;;;4992338;28;20049;-83
2023/05/19 12:19:01;;;;;;;6.30;2.25;;;23.20;50.40;;;;;;4948901;28;20047;-82
2023/05/19 12:22:16;;;;;;;6.03;2.40;;;23.50;47.70;;;;;;4871599;29;20056;-81
2023/05/19 12:25:08;;;;;;;;;;;;;;;;;;;;;
2023/05/19 12:28:31;;;;;;;;;;;;;;;;;;;;;
2023/05/19 12:31:34;;;;;;;5.25;2.28;;;23.30;48.40;;;;;;4916844;29;20044;-81
2023/05/19 12:34:59;;;;;;;5.97;2.25;;;23.50;48.70;;;;;;4895768;29;20041;-83
2023/05/19 12:38:22;;;;;;;7.10;2.42;;;23.00;46.50;;;;;;4894373;29;20056;-82
2023/05/19 12:42:23;;;;;;;5.93;2.47;;;22.40;49.60;;;;;;4892969;29;20125;-82
2023/05/19 12:45:45;;;;;;;6.88;2.50;;;22.60;48.70;;;;;;4857889;29;20052;-82
2023/05/19 12:48:50;;;;;;;5.78;2.50;;;22.80;48.40;;;;;;4904170;29;20083;-82
2023/05/19 12:52:26;;;;;;;;;;;;;;;;;;;;;
2023/05/19 13:00:49;;;;;;;;;;;;;;;;;;;;;
2023/05/19 13:03:11;;;;;;;16.10;2.88;;;23.70;45.00;;;;;;4998164;28;20037;-82
2023/05/19 13:09:35;;;;;;;5.57;2.30;;;23.30;45.60;;;;;;4983310;28;20037;-82
2023/05/19 13:15:59;;;;;;;5.82;2.33;;;22.90;48.10;;;;;;5001416;28;20053;-83
2023/05/19 13:30:44;;;;;;;;;;;;;;;;;;;;;
2023/05/19 13:33:35;;;;;;;8.35;2.55;;;23.50;46.40;;;;;;4958706;28;20134;-81
2023/05/19 13:36:01;;;;;;;6.85;2.75;;;22.80;47.00;;;;;;4996194;28;20049;-80
2023/05/19 13:38:36;;;;;;;5.35;2.65;;;22.90;48.60;;;;;;5007357;28;20044;-79
2023/05/19 13:41:11;;;;;;;7.03;2.42;;;22.90;48.70;;;;;;5006525;28;20052;-80
2023/05/19 13:43:37;;;;;;;5.88;2.42;;;23.20;48.00;;;;;;5016856;28;20460;-80
2023/05/19 13:46:11;;;;;;;6.53;2.50;;;23.20;48.40;;;;;;5018748;28;20041;-79
2023/05/19 13:48:46;;;;;;;6.10;2.55;;;23.30;47.40;;;;;;5008921;28;20038;-80
2023/05/19 13:51:25;;;;;;;6.50;2.38;;;23.40;47.30;;;;;;5026828;28;20056;-80
2023/05/19 13:54:03;;;;;;;5.38;2.30;;;23.90;46.70;;;;;;5017904;28;20077;-80
2023/05/19 13:56:34;;;;;;;6.40;2.30;;;24.00;46.70;;;;;;5019527;28;20041;-79
2023/05/19 13:59:02;;;;;;;5.28;2.30;;;23.90;46.70;;;;;;5016551;28;20045;-80
2023/05/19 14:01:46;;;;;;;5.72;2.80;;;23.90;47.10;;;;;;5018176;28;20061;-80
2023/05/19 14:04:15;;;;;;;6.63;2.92;;;23.30;45.90;;;;;;5020670;28;20132;-81
2023/05/19 14:06:41;;;;;;;5.45;2.40;;;22.70;46.90;;;;;;5017781;28;20042;-81
2023/05/19 14:09:32;;;;;;;;;;;;;;;;;;;;;
2023/05/19 14:12:20;;;;;;;5.13;2.42;;;22.30;48.20;;;;;;5019388;28;20050;-81
2023/05/19 14:15:09;;;;;;;5.50;2.42;;;21.90;49.50;;;;;;5012681;28;20041;-82
2023/05/19 14:17:53;;;;;;;5.15;2.35;;;21.80;49.40;;;;;;5039630;28;20046;-80
2023/05/19 14:23:20;;;;;;;7.50;3.10;;;21.40;49.30;;;;;;5023113;28;20080;-81
2023/05/19 14:26:04;;;;;;;6.57;2.42;;;21.20;50.10;;;;;;5019798;28;20050;-81
2023/05/19 14:28:39;;;;;;;7.53;2.92;;;21.00;50.10;;;;;;5018772;28;20177;-79
2023/05/19 14:31:16;;;;;;;6.70;2.45;;;21.10;50.00;;;;;;5052666;22;20061;-82
2023/05/19 14:34:27;;;;;;;8.30;2.53;;;21.30;51.10;;;;;;5041079;28;20509;-82
2023/05/19 14:37:10;;;;;;;6.80;3.00;;;21.50;50.60;;;;;;5015732;28;20439;-81
2023/05/19 14:40:16;;;;;;;7.35;2.47;;;21.80;49.70;;;;;;5036905;28;20052;-81
2023/05/19 14:43:49;;;;;;;10.45;2.70;;;21.80;49.00;;;;;;5033954;28;20049;-82
2023/05/19 14:46:56;;;;;;;6.50;2.50;;;21.40;50.00;;;;;;4989712;28;20046;-83
2023/05/19 14:50:23;;;;;;;6.13;2.53;;;21.40;50.90;;;;;;4967079;28;20042;-83
2023/05/19 14:53:51;;;;;;;;;;;;;;;;;;;;;
2023/05/19 14:56:58;;;;;;;5.80;2.70;;;22.10;49.70;;;;;;4997802;28;20092;-83
2023/05/19 14:59:49;;;;;;;5.68;2.70;;;22.20;49.40;;;;;;4995572;28;20112;-80
2023/05/19 15:02:50;;;;;;;5.18;2.70;;;21.70;49.20;;;;;;4957986;28;20039;-81
2023/05/19 15:10:04;;;;;;;5.72;2.70;;;20.70;51.30;;;;;;4994951;28;20049;-80
2023/05/19 15:14:24;;;;;;;6.28;2.80;;;20.70;51.70;;;;;;4877453;29;20471;-82
2023/05/19 15:17:26;;;;;;;6.07;2.70;;;20.70;51.80;;;;;;4841557;29;20510;-83
2023/05/19 15:27:31;;;;;;;7.68;2.83;;;19.80;51.10;;;;;;4988671;28;20082;-80
2023/05/19 15:31:07;;;;;;;4.95;2.40;;;19.60;52.90;;;;;;4921802;29;20052;-81
2023/05/19 15:33:48;;;;;;;5.35;2.75;;;19.80;52.80;;;;;;4905518;28;20046;-79
2023/05/19 15:36:46;;;;;;;5.13;2.90;;;20.00;52.50;;;;;;4969822;28;20113;-80